Flight Track Log - Related Links

Times and Time Zones

All times are in EDT time to prevent confusion due to time zone crossing. See the UPS1337 flight status page for this flight to view local times or setup timezone preferences in your user account.

Time Position Orientation Groundspeed Altitude Reporting Facility
EDT Latitude Longitude Course Direction KTS MPH feet Rate Location/Type
Fri 09:42:30 PM 27.9167 -82.6833 North 170 196 700  Level Tampa TRACON
Fri 09:44:17 PM 28.0286 -82.6622 North 235 270 5,600 3,162 Climbing Jacksonville Center
Fri 09:45:17 PM 28.1058 -82.6525 North 246 283 9,500 3,000 Climbing Jacksonville Center
Fri 09:46:17 PM 28.1978 -82.6406 North 293 337 11,600 2,731 Climbing Jacksonville Center
Fri 09:52:10 PM 28.9041 -82.6141 North 429 494 28,300 2,380 Climbing FlightAware ADS-B
Fri 09:53:18 PM 29.0348 -82.6093 North 422 486 28,300 791 Level FlightAware ADS-B
Fri 09:54:19 PM 29.1565 -82.6047 North 414 476 30,000 807 Climbing FlightAware ADS-B
Fri 09:55:17 PM 29.2600 -82.5997 North 412 474 29,900 157 Descending Jacksonville Center
Fri 10:00:42 PM 29.8988 -82.5769 North 416 479 31,000 129 Climbing FlightAware ADS-B
Fri 10:03:47 PM 30.2578 -82.5631 North 420 483 31,000  Level FlightAware ADS-B
Fri 10:04:17 PM 30.2975 -82.5631 North 416 479 31,000  Level Jacksonville Center
Fri 10:05:17 PM 30.4122 -82.5578 North 416 479 31,000  Level Jacksonville Center
Fri 10:06:17 PM 30.5311 -82.5356 North 422 486 31,000  Level Jacksonville Center
Fri 10:07:17 PM 30.6417 -82.4822 23° Northeast 422 486 31,000 -50 Level Jacksonville Center
Fri 10:08:17 PM 30.7542 -82.4186 26° Northeast 428 493 30,900  Descending Jacksonville Center
Fri 10:09:17 PM 30.8667 -82.3553 26° Northeast 440 506 31,000 50 Climbing Jacksonville Center
Fri 10:10:17 PM 30.9750 -82.2942 26° Northeast 440 506 31,000  Level Jacksonville Center
Fri 10:11:17 PM 31.0894 -82.2328 25° Northeast 440 506 31,000  Level Jacksonville Center
Fri 10:12:17 PM 31.2019 -82.1711 25° Northeast 440 506 31,000  Level Jacksonville Center
Fri 10:13:17 PM 31.3144 -82.1072 26° Northeast 440 506 31,000  Level Jacksonville Center
Fri 10:14:17 PM 31.4286 -82.0403 27° Northeast 445 512 31,000  Level Jacksonville Center
Fri 10:15:17 PM 31.5514 -81.9711 26° Northeast 445 512 31,000  Level Jacksonville Center
Fri 10:16:17 PM 31.6553 -81.9114 26° Northeast 445 512 31,000  Level Jacksonville Center
Fri 10:17:17 PM 31.7800 -81.8417 25° Northeast 445 512 31,000  Level Jacksonville Center
Fri 10:18:17 PM 31.8944 -81.7767 26° Northeast 450 518 31,000  Level Jacksonville Center
Fri 10:19:17 PM 31.9983 -81.7167 26° Northeast 450 518 31,000  Level Jacksonville Center
Fri 10:20:17 PM 32.1250 -81.6439 26° Northeast 450 518 31,000  Level Jacksonville Center
Fri 10:21:17 PM 32.2369 -81.5811 25° Northeast 445 512 31,000  Level Jacksonville Center
Fri 10:22:17 PM 32.3408 -81.5231 25° Northeast 445 512 31,000  Level Jacksonville Center
Fri 10:23:17 PM 32.4653 -81.4497 26° Northeast 445 512 31,000  Level Jacksonville Center
Fri 10:24:17 PM 32.5689 -81.3889 26° Northeast 445 512 31,000  Level Jacksonville Center
Fri 10:25:17 PM 32.6828 -81.3253 25° Northeast 445 512 31,000  Level Jacksonville Center
Fri 10:26:17 PM 32.7969 -81.2542 28° Northeast 450 518 31,000  Level Jacksonville Center
Fri 10:27:17 PM 32.9128 -81.1878 26° Northeast 450 518 31,000 -50 Level Jacksonville Center
Fri 10:28:17 PM 33.0289 -81.1211 26° Northeast 450 518 30,900  Descending Jacksonville Center
Fri 10:29:17 PM 33.1425 -81.0517 27° Northeast 450 518 31,000 50 Climbing Jacksonville Center
Fri 10:30:17 PM 33.2606 -80.9822 26° Northeast 455 524 31,000 -50 Level Jacksonville Center
Fri 10:31:17 PM 33.3744 -80.9153 26° Northeast 460 529 30,900  Descending Jacksonville Center
Fri 10:32:17 PM 33.4922 -80.8453 26° Northeast 460 529 31,000 50 Climbing Jacksonville Center
Fri 10:33:17 PM 33.6100 -80.7778 26° Northeast 460 529 31,000  Level Jacksonville Center
Fri 10:34:17 PM 33.7256 -80.7075 27° Northeast 460 529 31,000 -50 Level Jacksonville Center
Fri 10:35:17 PM 33.8392 -80.6372 27° Northeast 460 529 30,900  Descending Jacksonville Center
Fri 10:36:17 PM 33.9547 -80.5692 26° Northeast 460 529 31,000 50 Climbing Jacksonville Center
Fri 10:37:17 PM 34.0683 -80.4986 27° Northeast 460 529 31,000  Level Jacksonville Center
Fri 10:38:17 PM 34.1858 -80.4325 25° Northeast 460 529 31,000 -1,200 Level Jacksonville Center
Fri 10:40:22 PM 34.4153 -80.2894 27° Northeast 462 532 27,300 -1,934 Descending Washington Center
Fri 10:41:20 PM 34.5264 -80.2228 26° Northeast 462 532 25,100 -2,017 Descending Washington Center
Fri 10:42:21 PM 34.6419 -80.1508 27° Northeast 462 532 23,300 -1,041 Descending Washington Center
Fri 10:43:21 PM 34.7511 -80.0811 28° Northeast 457 526 23,000 -198 Descending Washington Center
Fri 10:44:22 PM 34.8525 -79.9908 36° Northeast 452 520 22,900 -1,765 Descending Washington Center
Fri 10:45:20 PM 34.9439 -79.8892 42° Northeast 441 507 19,500 -3,000 Descending Washington Center
Fri 10:46:20 PM 35.0436 -79.7778 42° Northeast 431 496 17,000 -2,083 Descending Washington Center
Fri 10:47:21 PM 35.1239 -79.6931 41° Northeast 431 496 15,300 -2,017 Descending Washington Center
Fri 10:48:16 PM 35.2108 -79.5933 43° Northeast 401 461 13,100 -2,017 Descending Washington Center
Fri 10:49:20 PM 35.2983 -79.5289 31° Northeast 390 449 11,300 -1,482 Descending Washington Center
Fri 10:49:41 PM 35.3411 -79.5006 28° Northeast 370 426 11,000 -200 Descending Washington Center
Fri 10:50:20 PM 35.3986 -79.4625 28° Northeast 368 423 11,100 109 Climbing Washington Center
Fri 10:50:36 PM 35.4222 -79.4458 30° Northeast 374 430 11,100  Level Washington Center
Fri 10:51:22 PM 35.4775 -79.4078 29° Northeast 363 418 11,100  Level Washington Center
Fri 10:51:37 PM 35.5056 -79.3811 38° Northeast 337 388 11,100  Level Washington Center
Fri 10:52:22 PM 35.5492 -79.3192 49° Northeast 337 388 11,100  Level Washington Center
Fri 10:52:37 PM 35.5647 -79.2894 57° Northeast 341 392 11,100  Level Washington Center
Fri 10:53:20 PM 35.6000 -79.2322 53° Northeast 338 389 11,100  Level Washington Center
Fri 10:53:44 PM 35.6286 -79.1850 53° Northeast 343 395 11,100  Level Washington Center
Fri 10:54:20 PM 35.6636 -79.1303 52° Northeast 343 395 11,100  Level Washington Center
Fri 10:54:38 PM 35.6811 -79.1003 54° Northeast 344 396 11,100  Level Washington Center
Fri 10:55:21 PM 35.7206 -79.0381 52° Northeast 343 395 11,100 -787 Level Washington Center
Fri 10:55:39 PM 35.7381 -79.0056 56° Northeast 340 391 10,300 -2,500 Descending Washington Center
Fri 10:56:21 PM 35.7772 -78.9458 51° Northeast 343 395 8,600 -2,000 Descending Washington Center
Fri 10:56:45 PM 35.8033 -78.9086 49° Northeast 317 365 8,100 -610 Descending Washington Center
Fri 10:57:20 PM 35.8461 -78.8769 31° Northeast 327 376 8,000 -290 Descending Washington Center
Fri 10:57:47 PM 35.8756 -78.8603 25° Northeast 267 307 7,800 -1,244 Descending Washington Center
Fri 10:58:42 PM 35.9389 -78.8400 15° North 257 296 6,300 -1,805 Descending Washington Center
Fri 10:59:40 PM 35.9986 -78.7883 35° Northeast 262 302 4,400 -1,311 Descending Washington Center
Fri 11:00:41 PM 36.0319 -78.7128 61° Northeast 242 278 3,700 -931 Descending Washington Center
Fri 11:01:36 PM 35.9953 -78.6753 140° Southeast 162 186 2,600 -776 Descending Washington Center
Fri 11:02:37 PM 35.9572 -78.6969 205° Southwest 139 160 2,200 -443 Descending Washington Center
Fri 11:03:38 PM 35.9378 -78.7244 229° Southwest 102 117 1,700 -545 Descending Washington Center
Fri 11:04:38 PM 35.9161 -78.7517 226° Southwest 112 129 1,100 -600 Descending Washington Center
Fri 11:06:00 PM 35.8776 -78.7875 219° Southwest  Level Estimated
Fri 11:13:00 PM 35.8776 -78.7875 219° Southwest  Level Estimated
Fri 11:14:00 PM 35.8776 -78.7875 43° Northeast  Level Estimated

Login

Don't have an account? Register now (free) for customized features, flight alerts, and more!